sensor_id;sensor_type;location;lat;lon;timestamp;pressure;altitude;pressure_sealevel;temperature;humidity
34374;BME280;20637;55.770;37.592;2023-02-02T00:01:08;98689.72;;;1.60;74.98
34374;BME280;20637;55.770;37.592;2023-02-02T00:03:34;98691.00;;;1.66;75.15
34374;BME280;20637;55.770;37.592;2023-02-02T00:05:59;98693.66;;;1.66;74.55
34374;BME280;20637;55.770;37.592;2023-02-02T00:08:24;98694.63;;;1.65;74.58
34374;BME280;20637;55.770;37.592;2023-02-02T00:10:50;98687.50;;;1.65;74.63
34374;BME280;20637;55.770;37.592;2023-02-02T00:13:15;98687.91;;;1.61;74.31
34374;BME280;20637;55.770;37.592;2023-02-02T00:15:41;98683.69;;;1.58;73.95
34374;BME280;20637;55.770;37.592;2023-02-02T00:18:06;98681.44;;;1.54;73.79
34374;BME280;20637;55.770;37.592;2023-02-02T00:20:32;98679.88;;;1.51;73.92
34374;BME280;20637;55.770;37.592;2023-02-02T00:22:59;98681.72;;;1.51;74.12
34374;BME280;20637;55.770;37.592;2023-02-02T00:25:24;98683.38;;;1.52;74.13
34374;BME280;20637;55.770;37.592;2023-02-02T00:27:50;98676.53;;;1.49;73.80
34374;BME280;20637;55.770;37.592;2023-02-02T00:30:15;98681.38;;;1.44;73.67
34374;BME280;20637;55.770;37.592;2023-02-02T00:32:41;98680.38;;;1.35;73.37
34374;BME280;20637;55.770;37.592;2023-02-02T00:35:07;98679.94;;;1.30;72.98
34374;BME280;20637;55.770;37.592;2023-02-02T00:37:33;98679.38;;;1.27;73.30
34374;BME280;20637;55.770;37.592;2023-02-02T00:39:58;98672.94;;;1.29;73.53
34374;BME280;20637;55.770;37.592;2023-02-02T00:42:25;98678.84;;;1.33;73.30
34374;BME280;20637;55.770;37.592;2023-02-02T00:44:50;98682.44;;;1.32;73.00
34374;BME280;20637;55.770;37.592;2023-02-02T00:47:35;98670.84;;;1.33;72.94
34374;BME280;20637;55.770;37.592;2023-02-02T00:50:00;98674.09;;;1.36;73.58
34374;BME280;20637;55.770;37.592;2023-02-02T00:52:25;98681.09;;;1.37;73.24
34374;BME280;20637;55.770;37.592;2023-02-02T00:54:51;98674.81;;;1.38;73.40
34374;BME280;20637;55.770;37.592;2023-02-02T00:57:16;98682.34;;;1.43;73.24
34374;BME280;20637;55.770;37.592;2023-02-02T00:59:42;98677.72;;;1.35;72.69
34374;BME280;20637;55.770;37.592;2023-02-02T01:02:08;98684.69;;;1.27;72.03
34374;BME280;20637;55.770;37.592;2023-02-02T01:04:34;98680.03;;;1.19;71.70
34374;BME280;20637;55.770;37.592;2023-02-02T01:06:59;98682.25;;;1.14;71.75
34374;BME280;20637;55.770;37.592;2023-02-02T01:09:25;98679.19;;;1.19;71.49
34374;BME280;20637;55.770;37.592;2023-02-02T01:11:50;98674.44;;;1.22;71.73
34374;BME280;20637;55.770;37.592;2023-02-02T01:14:15;98666.78;;;1.29;72.04
34374;BME280;20637;55.770;37.592;2023-02-02T01:16:41;98673.91;;;1.28;72.04
34374;BME280;20637;55.770;37.592;2023-02-02T01:19:06;98666.78;;;1.29;71.92
34374;BME280;20637;55.770;37.592;2023-02-02T01:21:33;98668.03;;;1.25;71.89
34374;BME280;20637;55.770;37.592;2023-02-02T01:23:58;98667.06;;;1.26;71.64
34374;BME280;20637;55.770;37.592;2023-02-02T01:26:23;98663.44;;;1.27;72.04
34374;BME280;20637;55.770;37.592;2023-02-02T01:28:49;98665.50;;;1.23;71.46
34374;BME280;20637;55.770;37.592;2023-02-02T01:31:15;98663.81;;;1.22;71.59
34374;BME280;20637;55.770;37.592;2023-02-02T01:33:42;98667.31;;;1.23;71.25
34374;BME280;20637;55.770;37.592;2023-02-02T01:36:09;98664.09;;;1.19;71.44
34374;BME280;20637;55.770;37.592;2023-02-02T01:38:35;98665.63;;;1.22;71.28
34374;BME280;20637;55.770;37.592;2023-02-02T01:41:01;98668.56;;;1.19;70.68
34374;BME280;20637;55.770;37.592;2023-02-02T01:45:55;98662.97;;;1.22;71.06
34374;BME280;20637;55.770;37.592;2023-02-02T01:48:23;98668.28;;;1.22;70.68
34374;BME280;20637;55.770;37.592;2023-02-02T01:50:51;98669.66;;;1.16;70.68
34374;BME280;20637;55.770;37.592;2023-02-02T01:53:17;98659.56;;;1.10;70.30
34374;BME280;20637;55.770;37.592;2023-02-02T01:55:44;98659.94;;;1.06;70.50
34374;BME280;20637;55.770;37.592;2023-02-02T01:58:10;98662.34;;;1.09;70.14
34374;BME280;20637;55.770;37.592;2023-02-02T02:00:38;98658.44;;;1.13;70.63
34374;BME280;20637;55.770;37.592;2023-02-02T02:03:11;98658.31;;;1.14;70.37
34374;BME280;20637;55.770;37.592;2023-02-02T02:05:51;98658.31;;;1.14;70.53
34374;BME280;20637;55.770;37.592;2023-02-02T02:08:22;98667.53;;;1.10;69.83
34374;BME280;20637;55.770;37.592;2023-02-02T02:10:48;98669.16;;;1.02;70.16
34374;BME280;20637;55.770;37.592;2023-02-02T02:13:14;98671.25;;;0.98;70.14
34374;BME280;20637;55.770;37.592;2023-02-02T02:16:06;98675.00;;;0.95;70.24
34374;BME280;20637;55.770;37.592;2023-02-02T02:21:24;98673.91;;;0.77;69.39
34374;BME280;20637;55.770;37.592;2023-02-02T02:35:22;98670.75;;;0.83;70.18
34374;BME280;20637;55.770;37.592;2023-02-02T02:37:54;98667.50;;;0.80;70.00
34374;BME280;20637;55.770;37.592;2023-02-02T02:42:55;98668.19;;;0.82;70.10
34374;BME280;20637;55.770;37.592;2023-02-02T02:45:22;98678.72;;;0.83;70.37
34374;BME280;20637;55.770;37.592;2023-02-02T02:47:49;98669.50;;;0.87;70.07
34374;BME280;20637;55.770;37.592;2023-02-02T02:50:15;98681.94;;;0.87;69.89
34374;BME280;20637;55.770;37.592;2023-02-02T02:52:41;98687.97;;;0.89;70.51
34374;BME280;20637;55.770;37.592;2023-02-02T02:55:07;98683.72;;;0.77;69.62
34374;BME280;20637;55.770;37.592;2023-02-02T03:05:06;98678.59;;;0.64;69.46
34374;BME280;20637;55.770;37.592;2023-02-02T03:07:40;98679.88;;;0.70;69.73
34374;BME280;20637;55.770;37.592;2023-02-02T03:10:07;98678.41;;;0.77;69.89
34374;BME280;20637;55.770;37.592;2023-02-02T03:12:42;98674.44;;;0.71;69.24
34374;BME280;20637;55.770;37.592;2023-02-02T03:15:07;98671.19;;;0.68;68.98
34374;BME280;20637;55.770;37.592;2023-02-02T03:17:33;98674.81;;;0.67;69.59
34374;BME280;20637;55.770;37.592;2023-02-02T03:19:58;98684.00;;;0.63;68.90
34374;BME280;20637;55.770;37.592;2023-02-02T03:22:24;98686.94;;;0.60;68.65
34374;BME280;20637;55.770;37.592;2023-02-02T03:24:49;98686.63;;;0.53;68.99
34374;BME280;20637;55.770;37.592;2023-02-02T03:27:14;98689.38;;;0.52;68.88
34374;BME280;20637;55.770;37.592;2023-02-02T03:29:40;98689.06;;;0.45;68.74
34374;BME280;20637;55.770;37.592;2023-02-02T03:32:05;98695.22;;;0.45;68.77
34374;BME280;20637;55.770;37.592;2023-02-02T03:34:31;98698.56;;;0.47;69.09
34374;BME280;20637;55.770;37.592;2023-02-02T03:36:56;98696.50;;;0.51;68.97
34374;BME280;20637;55.770;37.592;2023-02-02T03:39:22;98704.94;;;0.56;69.50
34374;BME280;20637;55.770;37.592;2023-02-02T03:41:47;98702.28;;;0.56;69.79
34374;BME280;20637;55.770;37.592;2023-02-02T03:44:12;98705.53;;;0.60;70.04
34374;BME280;20637;55.770;37.592;2023-02-02T03:46:38;98703.72;;;0.60;69.38
34374;BME280;20637;55.770;37.592;2023-02-02T03:49:03;98702.59;;;0.63;69.34
34374;BME280;20637;55.770;37.592;2023-02-02T03:51:28;98703.19;;;0.66;69.32
34374;BME280;20637;55.770;37.592;2023-02-02T03:53:54;98700.75;;;0.54;69.31
34374;BME280;20637;55.770;37.592;2023-02-02T03:56:19;98708.13;;;0.50;69.66
34374;BME280;20637;55.770;37.592;2023-02-02T03:58:45;98701.22;;;0.47;69.11
34374;BME280;20637;55.770;37.592;2023-02-02T04:01:11;98706.28;;;0.51;69.23
34374;BME280;20637;55.770;37.592;2023-02-02T04:03:37;98703.50;;;0.52;69.43
34374;BME280;20637;55.770;37.592;2023-02-02T04:06:03;98697.50;;;0.50;69.81
34374;BME280;20637;55.770;37.592;2023-02-02T04:08:28;98702.28;;;0.56;69.94
34374;BME280;20637;55.770;37.592;2023-02-02T04:10:54;98702.88;;;0.60;69.68
34374;BME280;20637;55.770;37.592;2023-02-02T04:13:19;98700.09;;;0.61;70.07
34374;BME280;20637;55.770;37.592;2023-02-02T04:15:45;98713.97;;;0.65;69.58
34374;BME280;20637;55.770;37.592;2023-02-02T04:18:10;98704.63;;;0.70;69.63
34374;BME280;20637;55.770;37.592;2023-02-02T04:20:36;98706.19;;;0.73;69.59
34374;BME280;20637;55.770;37.592;2023-02-02T04:23:01;98691.69;;;0.77;69.72
34374;BME280;20637;55.770;37.592;2023-02-02T04:25:26;98689.22;;;0.85;69.91
34374;BME280;20637;55.770;37.592;2023-02-02T04:27:52;98688.81;;;0.89;69.92
34374;BME280;20637;55.770;37.592;2023-02-02T04:30:17;98702.53;;;0.94;69.77
34374;BME280;20637;55.770;37.592;2023-02-02T04:32:44;98703.13;;;0.98;69.56
34374;BME280;20637;55.770;37.592;2023-02-02T04:35:10;98705.78;;;0.98;69.59
34374;BME280;20637;55.770;37.592;2023-02-02T04:37:35;98711.69;;;1.02;69.79
34374;BME280;20637;55.770;37.592;2023-02-02T04:40:01;98710.84;;;1.01;69.35
34374;BME280;20637;55.770;37.592;2023-02-02T04:42:26;98706.50;;;1.00;69.73
34374;BME280;20637;55.770;37.592;2023-02-02T04:44:51;98710.59;;;1.04;69.39
34374;BME280;20637;55.770;37.592;2023-02-02T04:47:17;98715.06;;;1.04;69.71
34374;BME280;20637;55.770;37.592;2023-02-02T04:49:42;98706.09;;;1.05;69.90
34374;BME280;20637;55.770;37.592;2023-02-02T04:52:09;98717.19;;;1.10;69.86
34374;BME280;20637;55.770;37.592;2023-02-02T04:54:34;98714.13;;;1.14;69.99
34374;BME280;20637;55.770;37.592;2023-02-02T04:57:00;98717.75;;;1.13;70.05
34374;BME280;20637;55.770;37.592;2023-02-02T04:59:27;98713.56;;;1.11;69.90
34374;BME280;20637;55.770;37.592;2023-02-02T05:01:52;98719.72;;;1.11;69.63
34374;BME280;20637;55.770;37.592;2023-02-02T05:04:18;98723.34;;;1.10;69.92
34374;BME280;20637;55.770;37.592;2023-02-02T05:06:43;98717.06;;;1.11;69.77
34374;BME280;20637;55.770;37.592;2023-02-02T05:09:09;98724.31;;;1.09;69.79
34374;BME280;20637;55.770;37.592;2023-02-02T05:11:35;98715.75;;;1.06;70.18
34374;BME280;20637;55.770;37.592;2023-02-02T05:14:00;98721.47;;;1.01;70.23
34374;BME280;20637;55.770;37.592;2023-02-02T05:16:26;98717.84;;;1.02;70.29
34374;BME280;20637;55.770;37.592;2023-02-02T05:18:52;98720.97;;;1.07;70.73
34374;BME280;20637;55.770;37.592;2023-02-02T05:21:18;98723.72;;;1.06;70.67
34374;BME280;20637;55.770;37.592;2023-02-02T05:23:44;98717.44;;;1.07;70.65
34374;BME280;20637;55.770;37.592;2023-02-02T05:26:13;98729.63;;;1.09;70.75
34374;BME280;20637;55.770;37.592;2023-02-02T05:28:40;98724.47;;;1.08;70.88
34374;BME280;20637;55.770;37.592;2023-02-02T05:31:07;98722.88;;;1.05;70.46
34374;BME280;20637;55.770;37.592;2023-02-02T05:33:33;98730.75;;;1.07;70.87
34374;BME280;20637;55.770;37.592;2023-02-02T05:35:58;98731.31;;;1.10;70.84
34374;BME280;20637;55.770;37.592;2023-02-02T05:38:23;98723.91;;;1.14;71.03
34374;BME280;20637;55.770;37.592;2023-02-02T05:40:49;98735.41;;;1.14;71.00
34374;BME280;20637;55.770;37.592;2023-02-02T05:43:14;98733.72;;;1.13;70.61
34374;BME280;20637;55.770;37.592;2023-02-02T05:45:40;98733.00;;;1.11;70.82
34374;BME280;20637;55.770;37.592;2023-02-02T05:48:06;98724.78;;;1.14;71.04
34374;BME280;20637;55.770;37.592;2023-02-02T05:50:31;98732.47;;;1.17;70.95
34374;BME280;20637;55.770;37.592;2023-02-02T05:53:05;98735.84;;;1.19;70.95
34374;BME280;20637;55.770;37.592;2023-02-02T05:55:31;98734.75;;;1.22;70.92
34374;BME280;20637;55.770;37.592;2023-02-02T05:57:56;98737.41;;;1.22;71.19
34374;BME280;20637;55.770;37.592;2023-02-02T06:00:21;98747.19;;;1.21;71.10
34374;BME280;20637;55.770;37.592;2023-02-02T06:02:47;98737.28;;;1.23;71.10
34374;BME280;20637;55.770;37.592;2023-02-02T06:05:12;98746.63;;;1.18;70.71
34374;BME280;20637;55.770;37.592;2023-02-02T06:07:38;98742.53;;;1.14;70.74
34374;BME280;20637;55.770;37.592;2023-02-02T06:10:03;98750.81;;;1.20;70.76
34374;BME280;20637;55.770;37.592;2023-02-02T06:12:29;98751.28;;;1.25;71.06
34374;BME280;20637;55.770;37.592;2023-02-02T06:14:54;98754.50;;;1.29;71.58
34374;BME280;20637;55.770;37.592;2023-02-02T06:17:20;98759.56;;;1.32;71.14
34374;BME280;20637;55.770;37.592;2023-02-02T06:19:45;98759.31;;;1.35;71.09
34374;BME280;20637;55.770;37.592;2023-02-02T06:22:10;98753.66;;;1.28;70.92
34374;BME280;20637;55.770;37.592;2023-02-02T06:24:36;98755.63;;;1.26;71.09
34374;BME280;20637;55.770;37.592;2023-02-02T06:27:01;98756.31;;;1.28;70.87
34374;BME280;20637;55.770;37.592;2023-02-02T06:29:27;98750.72;;;1.31;71.22
34374;BME280;20637;55.770;37.592;2023-02-02T06:31:52;98752.44;;;1.32;71.08
34374;BME280;20637;55.770;37.592;2023-02-02T06:34:17;98753.84;;;1.36;70.96
34374;BME280;20637;55.770;37.592;2023-02-02T06:36:43;98752.88;;;1.37;71.03
34374;BME280;20637;55.770;37.592;2023-02-02T06:39:08;98759.88;;;1.38;70.82
34374;BME280;20637;55.770;37.592;2023-02-02T06:41:34;98758.97;;;1.28;70.52
34374;BME280;20637;55.770;37.592;2023-02-02T06:44:00;98760.09;;;1.26;70.70
34374;BME280;20637;55.770;37.592;2023-02-02T06:46:25;98754.50;;;1.29;70.47
34374;BME280;20637;55.770;37.592;2023-02-02T06:48:51;98754.38;;;1.30;70.54
34374;BME280;20637;55.770;37.592;2023-02-02T06:51:16;98753.00;;;1.36;70.82
34374;BME280;20637;55.770;37.592;2023-02-02T06:53:42;98757.09;;;1.40;70.90
34374;BME280;20637;55.770;37.592;2023-02-02T06:56:08;98762.97;;;1.43;70.96
34374;BME280;20637;55.770;37.592;2023-02-02T06:58:36;98759.94;;;1.48;70.89
34374;BME280;20637;55.770;37.592;2023-02-02T07:01:02;98761.50;;;1.51;70.52
34374;BME280;20637;55.770;37.592;2023-02-02T07:03:28;98764.97;;;1.51;70.40
34374;BME280;20637;55.770;37.592;2023-02-02T07:05:53;98762.31;;;1.51;70.48
34374;BME280;20637;55.770;37.592;2023-02-02T07:08:19;98757.25;;;1.48;70.36
34374;BME280;20637;55.770;37.592;2023-02-02T07:10:44;98766.22;;;1.47;70.33
34374;BME280;20637;55.770;37.592;2023-02-02T07:13:10;98776.44;;;1.42;70.43
34374;BME280;20637;55.770;37.592;2023-02-02T07:15:39;98772.34;;;1.38;70.45
34374;BME280;20637;55.770;37.592;2023-02-02T07:18:04;98774.16;;;1.37;70.47
34374;BME280;20637;55.770;37.592;2023-02-02T07:20:30;98773.84;;;1.31;70.26
34374;BME280;20637;55.770;37.592;2023-02-02T07:22:55;98768.66;;;1.29;70.40
34374;BME280;20637;55.770;37.592;2023-02-02T07:25:21;98778.44;;;1.29;70.54
34374;BME280;20637;55.770;37.592;2023-02-02T07:27:46;98776.75;;;1.28;70.41
34374;BME280;20637;55.770;37.592;2023-02-02T07:30:12;98777.19;;;1.33;70.28
34374;BME280;20637;55.770;37.592;2023-02-02T07:32:38;98783.09;;;1.36;70.37
34374;BME280;20637;55.770;37.592;2023-02-02T07:35:04;98785.09;;;1.44;70.38
34374;BME280;20637;55.770;37.592;2023-02-02T07:37:29;98784.44;;;1.52;70.31
34374;BME280;20637;55.770;37.592;2023-02-02T07:39:54;98788.53;;;1.56;70.15
34374;BME280;20637;55.770;37.592;2023-02-02T07:42:20;98787.44;;;1.58;70.46
34374;BME280;20637;55.770;37.592;2023-02-02T07:44:45;98786.16;;;1.62;70.41
34374;BME280;20637;55.770;37.592;2023-02-02T07:47:10;98785.47;;;1.60;69.94
34374;BME280;20637;55.770;37.592;2023-02-02T07:49:36;98782.91;;;1.49;69.72
34374;BME280;20637;55.770;37.592;2023-02-02T07:52:01;98788.41;;;1.36;69.88
34374;BME280;20637;55.770;37.592;2023-02-02T07:54:27;98783.81;;;1.38;69.76
34374;BME280;20637;55.770;37.592;2023-02-02T07:56:52;98787.19;;;1.40;69.97
34374;BME280;20637;55.770;37.592;2023-02-02T07:59:18;98779.78;;;1.44;69.89
34374;BME280;20637;55.770;37.592;2023-02-02T08:01:43;98787.25;;;1.50;70.02
34374;BME280;20637;55.770;37.592;2023-02-02T08:04:08;98782.78;;;1.51;69.94
34374;BME280;20637;55.770;37.592;2023-02-02T08:06:35;98781.66;;;1.53;69.92
34374;BME280;20637;55.770;37.592;2023-02-02T08:09:01;98779.00;;;1.53;70.03
34374;BME280;20637;55.770;37.592;2023-02-02T08:11:28;98783.09;;;1.57;69.80
34374;BME280;20637;55.770;37.592;2023-02-02T08:13:54;98781.78;;;1.52;69.49
34374;BME280;20637;55.770;37.592;2023-02-02T08:16:20;98776.16;;;1.45;69.57
34374;BME280;20637;55.770;37.592;2023-02-02T08:18:46;98781.19;;;1.48;69.92
34374;BME280;20637;55.770;37.592;2023-02-02T08:21:12;98781.94;;;1.50;69.69
34374;BME280;20637;55.770;37.592;2023-02-02T08:23:38;98768.09;;;1.56;69.47
34374;BME280;20637;55.770;37.592;2023-02-02T08:26:25;98774.53;;;1.54;69.37
34374;BME280;20637;55.770;37.592;2023-02-02T08:28:57;98777.47;;;1.51;69.49
34374;BME280;20637;55.770;37.592;2023-02-02T08:31:26;98776.72;;;1.49;69.20
34374;BME280;20637;55.770;37.592;2023-02-02T08:33:53;98775.59;;;1.51;69.59
34374;BME280;20637;55.770;37.592;2023-02-02T08:36:20;98786.72;;;1.56;69.71
34374;BME280;20637;55.770;37.592;2023-02-02T08:38:45;98792.59;;;1.60;69.33
34374;BME280;20637;55.770;37.592;2023-02-02T08:41:12;98788.13;;;1.60;69.07
34374;BME280;20637;55.770;37.592;2023-02-02T08:43:38;98780.53;;;1.56;68.98
34374;BME280;20637;55.770;37.592;2023-02-02T08:46:03;98779.44;;;1.58;69.09
34374;BME280;20637;55.770;37.592;2023-02-02T08:48:29;98783.09;;;1.67;69.16
34374;BME280;20637;55.770;37.592;2023-02-02T08:50:55;98783.28;;;1.75;69.17
34374;BME280;20637;55.770;37.592;2023-02-02T08:53:21;98794.78;;;1.75;68.50
34374;BME280;20637;55.770;37.592;2023-02-02T08:55:47;98787.06;;;1.72;67.70
34374;BME280;20637;55.770;37.592;2023-02-02T08:58:13;98782.69;;;1.62;66.83
34374;BME280;20637;55.770;37.592;2023-02-02T09:00:38;98778.47;;;1.59;66.66
34374;BME280;20637;55.770;37.592;2023-02-02T09:03:04;98785.75;;;1.57;66.25
34374;BME280;20637;55.770;37.592;2023-02-02T09:05:29;98782.44;;;1.44;66.37
34374;BME280;20637;55.770;37.592;2023-02-02T09:07:57;98783.38;;;1.33;66.44
34374;BME280;20637;55.770;37.592;2023-02-02T09:10:22;98788.38;;;1.27;66.94
34374;BME280;20637;55.770;37.592;2023-02-02T09:12:48;98780.97;;;1.30;66.84
34374;BME280;20637;55.770;37.592;2023-02-02T09:15:13;98779.59;;;1.36;67.42
34374;BME280;20637;55.770;37.592;2023-02-02T09:17:39;98774.19;;;1.47;67.47
34374;BME280;20637;55.770;37.592;2023-02-02T09:20:04;98777.88;;;1.56;67.49
34374;BME280;20637;55.770;37.592;2023-02-02T09:22:30;98779.75;;;1.65;67.41
34374;BME280;20637;55.770;37.592;2023-02-02T09:24:57;98773.47;;;1.66;67.13
34374;BME280;20637;55.770;37.592;2023-02-02T09:27:23;98776.94;;;1.66;66.89
34374;BME280;20637;55.770;37.592;2023-02-02T09:29:48;98778.78;;;1.66;67.02
34374;BME280;20637;55.770;37.592;2023-02-02T09:32:14;98783.84;;;1.69;66.76
34374;BME280;20637;55.770;37.592;2023-02-02T09:34:39;98786.63;;;1.67;66.66
34374;BME280;20637;55.770;37.592;2023-02-02T09:37:05;98786.34;;;1.70;66.58
34374;BME280;20637;55.770;37.592;2023-02-02T09:39:30;98777.97;;;1.75;66.15
34374;BME280;20637;55.770;37.592;2023-02-02T09:41:58;98778.94;;;1.74;65.53
34374;BME280;20637;55.770;37.592;2023-02-02T09:49:34;98781.59;;;1.74;65.84
34374;BME280;20637;55.770;37.592;2023-02-02T09:52:05;98774.16;;;1.68;64.97
34374;BME280;20637;55.770;37.592;2023-02-02T09:56:58;98773.72;;;1.63;64.78
34374;BME280;20637;55.770;37.592;2023-02-02T09:59:26;98770.66;;;1.67;65.32
34374;BME280;20637;55.770;37.592;2023-02-02T10:01:54;98762.41;;;1.70;65.23
34374;BME280;20637;55.770;37.592;2023-02-02T10:04:23;98766.31;;;1.66;64.89
34374;BME280;20637;55.770;37.592;2023-02-02T10:06:52;98767.03;;;1.68;64.93
34374;BME280;20637;55.770;37.592;2023-02-02T10:09:33;98765.06;;;1.70;65.36
34374;BME280;20637;55.770;37.592;2023-02-02T10:12:44;98759.22;;;1.76;65.39
34374;BME280;20637;55.770;37.592;2023-02-02T10:14:55;98753.06;;;1.76;65.39
34374;BME280;20637;55.770;37.592;2023-02-02T10:19:59;98752.34;;;1.74;65.54
34374;BME280;20637;55.770;37.592;2023-02-02T10:22:26;98749.66;;;1.74;65.73
34374;BME280;20637;55.770;37.592;2023-02-02T10:24:55;98750.13;;;1.79;65.84
34374;BME280;20637;55.770;37.592;2023-02-02T10:27:24;98754.47;;;1.80;65.80
34374;BME280;20637;55.770;37.592;2023-02-02T10:29:54;98758.28;;;1.87;65.72
34374;BME280;20637;55.770;37.592;2023-02-02T10:32:23;98750.84;;;1.90;65.52
34374;BME280;20637;55.770;37.592;2023-02-02T10:37:35;98759.97;;;1.98;65.43
34374;BME280;20637;55.770;37.592;2023-02-02T10:43:11;98749.91;;;2.01;64.83
34374;BME280;20637;55.770;37.592;2023-02-02T10:45:58;98747.81;;;1.95;65.27
34374;BME280;20637;55.770;37.592;2023-02-02T10:48:26;98752.84;;;1.98;65.56
34374;BME280;20637;55.770;37.592;2023-02-02T10:50:59;98750.75;;;2.02;65.32
34374;BME280;20637;55.770;37.592;2023-02-02T10:53:27;98751.47;;;2.04;65.28
34374;BME280;20637;55.770;37.592;2023-02-02T10:56:03;98745.81;;;1.97;64.88
34374;BME280;20637;55.770;37.592;2023-02-02T10:58:45;98748.25;;;2.00;65.33
34374;BME280;20637;55.770;37.592;2023-02-02T11:01:12;98745.88;;;2.07;65.32
34374;BME280;20637;55.770;37.592;2023-02-02T11:03:42;98735.78;;;2.10;65.31
34374;BME280;20637;55.770;37.592;2023-02-02T11:06:09;98741.84;;;2.12;65.13
34374;BME280;20637;55.770;37.592;2023-02-02T11:08:54;98738.56;;;2.09;65.00
34374;BME280;20637;55.770;37.592;2023-02-02T11:11:37;98732.84;;;2.13;64.90
34374;BME280;20637;55.770;37.592;2023-02-02T11:16:35;98745.06;;;2.25;65.08
34374;BME280;20637;55.770;37.592;2023-02-02T11:19:09;98747.59;;;2.36;65.05
34374;BME280;20637;55.770;37.592;2023-02-02T11:21:55;98745.25;;;2.43;65.13
34374;BME280;20637;55.770;37.592;2023-02-02T11:26:50;98747.91;;;2.53;64.94
34374;BME280;20637;55.770;37.592;2023-02-02T11:29:22;98749.59;;;2.54;64.97
34374;BME280;20637;55.770;37.592;2023-02-02T11:31:50;98746.94;;;2.54;64.82
34374;BME280;20637;55.770;37.592;2023-02-02T11:34:17;98762.19;;;2.52;64.89
34374;BME280;20637;55.770;37.592;2023-02-02T11:37:03;98760.22;;;2.44;64.79
34374;BME280;20637;55.770;37.592;2023-02-02T11:39:34;98762.16;;;2.32;64.70
34374;BME280;20637;55.770;37.592;2023-02-02T11:42:00;98765.25;;;2.28;64.97
34374;BME280;20637;55.770;37.592;2023-02-02T11:44:28;98760.06;;;2.26;65.01
34374;BME280;20637;55.770;37.592;2023-02-02T11:46:54;98768.06;;;2.26;65.32
34374;BME280;20637;55.770;37.592;2023-02-02T11:49:21;98757.69;;;2.23;65.16
34374;BME280;20637;55.770;37.592;2023-02-02T11:54:26;98760.19;;;2.15;65.13
34374;BME280;20637;55.770;37.592;2023-02-02T11:56:59;98760.75;;;2.19;65.49
34374;BME280;20637;55.770;37.592;2023-02-02T11:59:40;98767.22;;;2.26;65.14
34374;BME280;20637;55.770;37.592;2023-02-02T12:02:19;98764.56;;;2.26;65.19
34374;BME280;20637;55.770;37.592;2023-02-02T12:04:46;98763.59;;;2.27;65.47
34374;BME280;20637;55.770;37.592;2023-02-02T12:07:29;98773.09;;;2.29;65.51
34374;BME280;20637;55.770;37.592;2023-02-02T12:09:57;98769.59;;;2.29;65.31
34374;BME280;20637;55.770;37.592;2023-02-02T12:12:35;98767.91;;;2.28;65.27
34374;BME280;20637;55.770;37.592;2023-02-02T12:17:39;98774.63;;;2.32;65.30
34374;BME280;20637;55.770;37.592;2023-02-02T12:27:42;98766.94;;;2.19;65.41
34374;BME280;20637;55.770;37.592;2023-02-02T12:40:39;98778.38;;;2.10;64.72
34374;BME280;20637;55.770;37.592;2023-02-02T12:43:17;98767.44;;;2.13;65.25
34374;BME280;20637;55.770;37.592;2023-02-02T12:46:03;98779.78;;;2.14;64.72
34374;BME280;20637;55.770;37.592;2023-02-02T12:51:05;98776.56;;;2.11;65.01
34374;BME280;20637;55.770;37.592;2023-02-02T13:09:30;98774.97;;;1.99;65.11
34374;BME280;20637;55.770;37.592;2023-02-02T13:12:06;98782.00;;;2.00;65.31
34374;BME280;20637;55.770;37.592;2023-02-02T13:14:36;98777.66;;;1.99;65.15
34374;BME280;20637;55.770;37.592;2023-02-02T13:17:08;98778.63;;;1.98;65.41
34374;BME280;20637;55.770;37.592;2023-02-02T13:22:01;98778.63;;;1.98;65.39
34374;BME280;20637;55.770;37.592;2023-02-02T13:24:30;98767.97;;;1.98;65.44
34374;BME280;20637;55.770;37.592;2023-02-02T13:26:58;98773.44;;;1.96;65.30
34374;BME280;20637;55.770;37.592;2023-02-02T13:31:54;98780.13;;;1.90;65.32
34374;BME280;20637;55.770;37.592;2023-02-02T13:34:23;98777.31;;;1.82;65.46
34374;BME280;20637;55.770;37.592;2023-02-02T13:36:53;98766.94;;;1.79;65.69
34374;BME280;20637;55.770;37.592;2023-02-02T13:39:24;98780.34;;;1.78;65.66
34374;BME280;20637;55.770;37.592;2023-02-02T13:41:52;98784.44;;;1.82;66.03
34374;BME280;20637;55.770;37.592;2023-02-02T13:44:24;98776.78;;;1.88;65.65
34374;BME280;20637;55.770;37.592;2023-02-02T13:49:25;98789.09;;;1.89;65.83
34374;BME280;20637;55.770;37.592;2023-02-02T13:59:58;98786.59;;;1.88;65.79
34374;BME280;20637;55.770;37.592;2023-02-02T14:04:51;98786.88;;;1.95;66.00
34374;BME280;20637;55.770;37.592;2023-02-02T14:07:23;98789.41;;;1.96;66.01
34374;BME280;20637;55.770;37.592;2023-02-02T14:09:50;98796.28;;;1.99;66.06
34374;BME280;20637;55.770;37.592;2023-02-02T14:12:15;98795.16;;;2.01;66.24
34374;BME280;20637;55.770;37.592;2023-02-02T14:14:50;98797.81;;;2.01;66.22
34374;BME280;20637;55.770;37.592;2023-02-02T14:27:00;98809.84;;;1.96;66.54
34374;BME280;20637;55.770;37.592;2023-02-02T14:32:00;98817.69;;;1.97;66.56
34374;BME280;20637;55.770;37.592;2023-02-02T14:34:42;98819.22;;;1.90;66.54
34374;BME280;20637;55.770;37.592;2023-02-02T14:39:33;98818.91;;;1.83;66.65
34374;BME280;20637;55.770;37.592;2023-02-02T14:47:45;98828.50;;;1.96;66.87
34374;BME280;20637;55.770;37.592;2023-02-02T14:50:16;98834.50;;;1.98;66.71
34374;BME280;20637;55.770;37.592;2023-02-02T14:52:43;98828.22;;;1.99;66.76
34374;BME280;20637;55.770;37.592;2023-02-02T14:55:15;98833.81;;;1.96;66.85
34374;BME280;20637;55.770;37.592;2023-02-02T14:57:41;98832.97;;;1.95;66.81
34374;BME280;20637;55.770;37.592;2023-02-02T15:00:18;98826.28;;;2.01;66.94
34374;BME280;20637;55.770;37.592;2023-02-02T15:02:45;98838.47;;;2.03;66.98
34374;BME280;20637;55.770;37.592;2023-02-02T15:13:14;98833.25;;;2.02;66.84
34374;BME280;20637;55.770;37.592;2023-02-02T15:15:41;98835.53;;;2.06;66.92
34374;BME280;20637;55.770;37.592;2023-02-02T15:18:29;98831.06;;;2.07;66.75